createdAt,value
2018-07-13T00:02:35.301Z,91.50
2018-07-13T00:05:38.424Z,92.20
2018-07-13T00:08:41.687Z,91.40
2018-07-13T00:11:45.135Z,91.20
2018-07-13T00:15:08.427Z,91.00
2018-07-13T00:18:11.573Z,90.90
2018-07-13T00:21:14.790Z,91.00
2018-07-13T00:24:17.962Z,90.00
2018-07-13T00:27:21.137Z,90.90
2018-07-13T00:30:24.314Z,91.10
2018-07-13T00:33:27.503Z,91.90
2018-07-13T00:36:31.002Z,93.30
2018-07-13T00:42:37.118Z,92.80
2018-07-13T00:45:40.334Z,91.30
2018-07-13T00:48:43.835Z,92.40
2018-07-13T00:51:47.029Z,92.40
2018-07-13T00:54:50.291Z,92.10
2018-07-13T00:57:53.590Z,91.20
2018-07-13T01:00:56.793Z,92.30
2018-07-13T01:03:59.984Z,92.00
2018-07-13T01:07:03.180Z,91.80
2018-07-13T01:10:06.381Z,92.80
2018-07-13T01:13:09.599Z,92.60
2018-07-13T01:16:12.754Z,93.70
2018-07-13T01:19:15.944Z,93.10
2018-07-13T01:22:19.115Z,93.90
2018-07-13T01:25:22.288Z,93.90
2018-07-13T01:28:25.512Z,93.30
2018-07-13T01:31:28.701Z,93.10
2018-07-13T01:34:31.856Z,93.70
2018-07-13T01:37:35.078Z,94.40
2018-07-13T01:40:38.292Z,93.60
2018-07-13T01:43:41.512Z,94.00
2018-07-13T01:46:44.783Z,93.50
2018-07-13T01:49:48.060Z,93.70
2018-07-13T01:52:51.419Z,94.00
2018-07-13T01:55:54.670Z,94.00
2018-07-13T01:58:57.887Z,93.40
2018-07-13T02:02:01.087Z,93.70
2018-07-13T02:05:04.500Z,92.70
2018-07-13T02:08:07.696Z,93.10
2018-07-13T02:11:10.928Z,94.50
2018-07-13T02:14:14.080Z,95.00
2018-07-13T02:17:17.576Z,95.10
2018-07-13T02:20:20.839Z,95.70
2018-07-13T02:23:24.035Z,94.90
2018-07-13T02:26:27.233Z,95.00
2018-07-13T02:29:30.389Z,95.70
2018-07-13T02:32:33.536Z,95.50
2018-07-13T02:35:36.709Z,95.90
2018-07-13T02:38:39.851Z,95.30
2018-07-13T02:41:43.004Z,95.40
2018-07-13T02:44:46.160Z,95.50
2018-07-13T02:47:49.379Z,95.00
2018-07-13T02:50:52.625Z,95.00
2018-07-13T02:53:55.784Z,95.20
2018-07-13T02:56:58.980Z,94.70
2018-07-13T03:00:02.155Z,95.60
2018-07-13T03:03:05.423Z,96.80
2018-07-13T03:06:08.630Z,97.10
2018-07-13T03:09:12.771Z,95.70
2018-07-13T03:12:15.935Z,96.90
2018-07-13T03:15:19.140Z,95.50
2018-07-13T03:18:22.319Z,96.70
2018-07-13T03:21:25.480Z,95.30
2018-07-13T03:24:28.661Z,96.80
2018-07-13T03:27:31.859Z,96.70
2018-07-13T03:30:35.082Z,95.70
2018-07-13T03:33:38.300Z,96.10
2018-07-13T03:36:41.509Z,96.40
2018-07-13T03:39:44.796Z,95.90
2018-07-13T03:42:48.243Z,95.80
2018-07-13T03:45:51.482Z,96.30
2018-07-13T03:48:54.799Z,95.80
2018-07-13T03:51:58.099Z,95.10
2018-07-13T03:55:01.274Z,95.70
2018-07-13T03:58:04.520Z,95.90
2018-07-13T04:01:07.716Z,96.10
2018-07-13T04:04:10.915Z,95.00
2018-07-13T04:07:14.184Z,95.70
2018-07-13T04:10:17.407Z,94.40
2018-07-13T04:13:20.736Z,94.60
2018-07-13T04:16:24.057Z,93.40
2018-07-13T04:19:27.218Z,94.50
2018-07-13T04:22:30.408Z,93.80
2018-07-13T04:28:37.930Z,91.20
2018-07-13T04:31:41.144Z,89.50
2018-07-13T04:34:44.359Z,91.00
2018-07-13T04:37:47.680Z,90.70
2018-07-13T04:40:50.908Z,90.40
2018-07-13T04:43:54.107Z,91.00
2018-07-13T04:46:57.288Z,91.00
2018-07-13T04:50:00.486Z,91.90
2018-07-13T04:53:03.655Z,92.20
2018-07-13T04:56:06.933Z,92.10
2018-07-13T04:59:10.204Z,92.20
2018-07-13T05:02:13.411Z,91.70
2018-07-13T05:05:16.902Z,91.70
2018-07-13T05:08:20.347Z,91.00
2018-07-13T05:11:23.711Z,90.90
2018-07-13T05:14:26.908Z,89.20
2018-07-13T05:17:30.123Z,89.40
2018-07-13T05:20:33.311Z,87.70
2018-07-13T05:23:36.507Z,85.60
2018-07-13T05:26:39.743Z,82.00
2018-07-13T05:29:43.004Z,80.30
2018-07-13T05:32:46.225Z,79.00
2018-07-13T05:35:49.693Z,80.00
2018-07-13T05:38:52.935Z,79.60
2018-07-13T05:41:56.094Z,76.50
2018-07-13T05:44:59.439Z,75.10
2018-07-13T05:48:02.644Z,74.20
2018-07-13T05:51:05.931Z,76.70
2018-07-13T05:54:09.704Z,76.40
2018-07-13T05:57:12.927Z,77.10
2018-07-13T06:00:16.089Z,78.40
2018-07-13T06:03:19.590Z,77.90
2018-07-13T06:06:23.185Z,76.50
2018-07-13T06:09:26.420Z,75.70
2018-07-13T06:12:29.569Z,77.30
2018-07-13T06:15:32.750Z,77.80
2018-07-13T06:18:35.951Z,77.00
2018-07-13T06:21:39.278Z,76.30
2018-07-13T06:24:42.445Z,74.60
2018-07-13T06:27:45.615Z,76.60
2018-07-13T06:30:48.824Z,75.80
2018-07-13T06:33:52.225Z,77.10
2018-07-13T06:36:55.552Z,77.40
2018-07-13T06:39:58.841Z,77.50
2018-07-13T06:43:02.001Z,76.50
2018-07-13T06:46:06.272Z,77.10
2018-07-13T06:49:09.706Z,77.00
2018-07-13T06:52:12.977Z,77.00
2018-07-13T06:55:17.019Z,76.60
2018-07-13T06:58:31.717Z,76.50
2018-07-13T07:01:35.055Z,75.60
2018-07-13T07:04:39.260Z,75.20
2018-07-13T07:07:42.461Z,74.40
2018-07-13T07:10:45.760Z,73.80
2018-07-13T07:13:49.800Z,73.10
2018-07-13T07:16:53.465Z,72.50
2018-07-13T07:19:56.708Z,71.90
2018-07-13T07:22:59.864Z,69.90
2018-07-13T07:26:03.576Z,68.80
2018-07-13T07:29:06.944Z,68.50
2018-07-13T07:32:10.150Z,67.70
2018-07-13T07:35:13.324Z,66.30
2018-07-13T07:38:16.581Z,66.70
2018-07-13T07:41:19.987Z,66.40
2018-07-13T07:44:23.256Z,65.50
2018-07-13T07:47:26.456Z,63.90
2018-07-13T07:50:29.921Z,61.90
2018-07-13T07:53:33.288Z,62.50
2018-07-13T07:56:36.551Z,60.70
2018-07-13T07:59:39.795Z,58.90
2018-07-13T08:02:43.043Z,60.40
2018-07-13T08:05:46.224Z,57.40
2018-07-13T08:08:49.520Z,56.00
2018-07-13T08:11:52.840Z,51.70
2018-07-13T08:14:56.884Z,49.80
2018-07-13T08:18:00.054Z,48.10
2018-07-13T08:21:03.212Z,48.60
2018-07-13T08:24:06.400Z,49.90
2018-07-13T08:27:13.093Z,46.60
2018-07-13T08:30:28.372Z,44.10
2018-07-13T08:33:31.673Z,43.10
2018-07-13T08:36:34.875Z,42.50
2018-07-13T08:39:38.116Z,41.40
2018-07-13T08:42:41.751Z,41.00
2018-07-13T08:45:44.962Z,42.00
2018-07-13T08:48:48.221Z,42.90
2018-07-13T08:51:51.722Z,44.70
2018-07-13T08:54:55.234Z,44.40
2018-07-13T08:57:58.709Z,42.90
2018-07-13T09:01:02.082Z,41.80
2018-07-13T09:04:05.499Z,41.60
2018-07-13T09:07:08.973Z,41.60
2018-07-13T09:10:13.132Z,42.70
2018-07-13T09:13:16.507Z,45.20
2018-07-13T09:16:19.993Z,44.30
2018-07-13T09:19:23.475Z,43.10
2018-07-13T09:22:26.659Z,40.80
2018-07-13T09:25:29.947Z,39.50
2018-07-13T09:31:36.336Z,39.50
2018-07-13T09:34:39.596Z,39.00
2018-07-13T09:37:42.754Z,40.80
2018-07-13T09:40:45.939Z,40.80
2018-07-13T09:43:49.206Z,40.40
2018-07-13T09:46:52.522Z,39.60
2018-07-13T09:49:55.706Z,39.70
2018-07-13T09:52:58.872Z,41.30
2018-07-13T09:56:02.051Z,40.80
2018-07-13T09:59:05.417Z,42.40
2018-07-13T10:02:08.676Z,45.00
2018-07-13T10:05:11.878Z,44.50
2018-07-13T10:08:15.020Z,42.60
2018-07-13T10:11:18.224Z,42.20
2018-07-13T10:14:21.526Z,42.70
2018-07-13T10:17:24.702Z,44.50
2018-07-13T10:20:27.968Z,45.90
2018-07-13T10:23:31.615Z,45.20
2018-07-13T10:26:36.045Z,43.80
2018-07-13T10:29:43.751Z,42.30
2018-07-13T10:32:46.944Z,43.40
2018-07-13T10:35:50.851Z,41.70
2018-07-13T10:38:54.096Z,42.80
2018-07-13T10:41:57.255Z,44.20
2018-07-13T10:45:00.504Z,42.60
2018-07-13T10:48:03.664Z,42.50
2018-07-13T10:51:06.847Z,43.20
2018-07-13T10:54:10.001Z,43.50
2018-07-13T10:57:13.172Z,44.60
2018-07-13T11:00:16.324Z,43.50
2018-07-13T11:03:19.508Z,44.00
2018-07-13T11:06:22.701Z,42.90
2018-07-13T11:09:25.844Z,43.90
2018-07-13T11:12:29.049Z,43.30
2018-07-13T11:15:32.225Z,43.50
2018-07-13T11:18:35.448Z,42.70
2018-07-13T11:21:38.587Z,42.10
2018-07-13T11:24:41.772Z,40.90
2018-07-13T11:27:45.015Z,41.60
2018-07-13T11:30:48.172Z,41.40
2018-07-13T11:33:51.334Z,42.00
2018-07-13T11:36:54.678Z,41.60
2018-07-13T11:39:58.212Z,42.80
2018-07-13T11:46:04.363Z,45.70
2018-07-13T11:49:07.675Z,46.10
2018-07-13T11:52:10.888Z,47.50
2018-07-13T11:55:14.012Z,49.70
2018-07-13T11:58:17.275Z,49.80
2018-07-13T12:01:20.576Z,49.40
2018-07-13T12:04:23.710Z,49.90
2018-07-13T12:07:27.021Z,50.40
2018-07-13T12:13:33.003Z,51.20
2018-07-13T12:16:36.232Z,51.50
2018-07-13T12:19:39.373Z,51.10
2018-07-13T12:22:42.532Z,50.60
2018-07-13T12:25:45.735Z,49.30
2018-07-13T12:28:48.941Z,48.20
2018-07-13T12:31:52.099Z,48.20
2018-07-13T12:34:55.280Z,47.90
2018-07-13T12:37:58.469Z,48.80
2018-07-13T12:41:01.720Z,47.90
2018-07-13T12:44:04.843Z,47.50
2018-07-13T12:47:07.991Z,46.70
2018-07-13T12:50:11.152Z,46.50
2018-07-13T12:53:14.275Z,45.80
2018-07-13T12:56:17.469Z,46.10
2018-07-13T12:59:20.665Z,46.80
2018-07-13T13:02:23.817Z,47.30
2018-07-13T13:05:27.248Z,47.50
2018-07-13T13:08:30.970Z,47.60
2018-07-13T13:11:34.173Z,46.80
2018-07-13T13:14:37.352Z,46.10
2018-07-13T13:17:40.776Z,46.90
2018-07-13T13:20:43.951Z,47.10
2018-07-13T13:23:47.136Z,47.10
2018-07-13T13:26:50.304Z,46.50
2018-07-13T13:29:53.460Z,45.50
2018-07-13T13:32:56.633Z,45.70
2018-07-13T13:36:00.267Z,45.00
2018-07-13T13:39:04.673Z,45.40
2018-07-13T13:42:08.063Z,44.60
2018-07-13T13:45:11.219Z,44.10
2018-07-13T13:48:14.513Z,44.30
2018-07-13T13:51:17.963Z,44.10
2018-07-13T13:54:21.971Z,43.30
2018-07-13T13:57:25.237Z,44.00
2018-07-13T14:00:28.889Z,43.70
2018-07-13T14:03:32.509Z,44.60
2018-07-13T14:06:35.770Z,44.50
2018-07-13T14:09:39.056Z,44.40
2018-07-13T14:12:42.412Z,44.30
2018-07-13T14:15:45.620Z,44.60
2018-07-13T14:18:48.806Z,45.00
2018-07-13T14:24:55.047Z,45.60
2018-07-13T14:27:58.316Z,45.80
2018-07-13T14:31:01.471Z,45.50
2018-07-13T14:34:04.748Z,46.30
2018-07-13T14:43:14.364Z,47.80
2018-07-13T14:46:17.546Z,48.50
2018-07-13T14:49:20.788Z,46.50
2018-07-13T14:52:24.128Z,47.60
2018-07-13T14:55:27.317Z,47.80
2018-07-13T14:58:30.507Z,47.00
2018-07-13T15:01:33.746Z,46.60
2018-07-13T15:04:36.961Z,46.60
2018-07-13T15:07:40.240Z,46.50
2018-07-13T15:10:43.582Z,46.70
2018-07-13T15:13:46.768Z,47.40
2018-07-13T15:16:50.086Z,47.50
2018-07-13T15:19:53.270Z,48.10
2018-07-13T15:22:56.623Z,47.80
2018-07-13T15:25:59.775Z,47.80
2018-07-13T15:29:03.075Z,48.60
2018-07-13T15:35:09.502Z,49.00
2018-07-13T15:38:12.724Z,48.50
2018-07-13T15:41:15.995Z,48.70
2018-07-13T15:44:19.156Z,50.60
2018-07-13T15:47:22.516Z,50.50
2018-07-13T15:50:25.720Z,49.50
2018-07-13T15:53:28.932Z,49.10
2018-07-13T15:56:32.160Z,49.50
2018-07-13T15:59:35.343Z,50.50
2018-07-13T16:02:38.635Z,51.30
2018-07-13T16:05:41.844Z,50.60
2018-07-13T16:08:45.050Z,50.80
2018-07-13T16:11:48.233Z,50.60
2018-07-13T16:14:51.980Z,50.50
2018-07-13T16:17:55.363Z,50.40
2018-07-13T16:20:58.793Z,51.10
2018-07-13T16:24:02.357Z,51.30
2018-07-13T16:27:05.748Z,49.80
2018-07-13T16:30:09.055Z,49.40
2018-07-13T16:33:12.298Z,49.00
2018-07-13T16:36:15.539Z,49.80
2018-07-13T16:39:18.663Z,49.60
2018-07-13T16:42:21.807Z,49.70
2018-07-13T16:45:24.971Z,50.10
2018-07-13T16:48:28.227Z,50.70
2018-07-13T16:51:31.515Z,50.80
2018-07-13T16:54:34.872Z,50.40
2018-07-13T16:57:38.212Z,50.80
2018-07-13T17:00:41.548Z,51.80
2018-07-13T17:03:44.715Z,51.50
2018-07-13T17:06:47.952Z,51.80
2018-07-13T17:09:51.211Z,52.00
2018-07-13T17:12:54.748Z,52.60
2018-07-13T17:15:58.188Z,52.00
2018-07-13T17:19:01.469Z,53.70
2018-07-13T17:22:04.707Z,53.20
2018-07-13T17:25:07.921Z,52.80
2018-07-13T17:28:11.237Z,53.40
2018-07-13T17:31:14.384Z,54.40
2018-07-13T17:34:17.663Z,54.60
2018-07-13T17:37:20.842Z,55.20
2018-07-13T17:40:24.068Z,55.50
2018-07-13T17:43:27.308Z,55.90
2018-07-13T17:46:30.876Z,55.90
2018-07-13T17:49:34.028Z,55.90
2018-07-13T17:52:37.230Z,56.70
2018-07-13T17:55:40.413Z,57.10
2018-07-13T17:58:43.632Z,57.10
2018-07-13T18:01:46.871Z,57.20
2018-07-13T18:04:51.818Z,57.50
2018-07-13T18:07:55.328Z,57.60
2018-07-13T18:10:59.105Z,57.90
2018-07-13T18:14:02.268Z,58.20
2018-07-13T18:17:05.482Z,58.50
2018-07-13T18:20:08.876Z,58.50
2018-07-13T18:23:12.528Z,58.80
2018-07-13T18:26:15.716Z,58.90
2018-07-13T18:29:19.157Z,59.40
2018-07-13T18:32:23.133Z,59.80
2018-07-13T18:35:26.691Z,60.30
2018-07-13T18:38:29.923Z,60.70
2018-07-13T18:41:33.120Z,61.10
2018-07-13T18:44:36.274Z,61.30
2018-07-13T18:47:39.489Z,61.70
2018-07-13T18:50:42.876Z,62.40
2018-07-13T18:53:46.185Z,62.90
2018-07-13T18:56:49.922Z,63.70
2018-07-13T18:59:53.695Z,64.00
2018-07-13T19:02:57.016Z,64.00
2018-07-13T19:06:00.220Z,64.20
2018-07-13T19:09:03.572Z,64.40
2018-07-13T19:12:06.982Z,65.10
2018-07-13T19:15:10.406Z,65.40
2018-07-13T19:18:13.574Z,65.90
2018-07-13T19:24:20.145Z,66.60
2018-07-13T19:27:23.877Z,67.40
2018-07-13T19:30:27.334Z,68.00
2018-07-13T19:33:30.518Z,68.30
2018-07-13T19:36:33.709Z,68.90
2018-07-13T19:39:37.848Z,69.30
2018-07-13T19:42:41.032Z,69.70
2018-07-13T19:45:44.292Z,70.10
2018-07-13T19:48:47.623Z,70.40
2018-07-13T19:51:51.463Z,70.80
2018-07-13T19:54:54.753Z,71.10
2018-07-13T19:57:57.948Z,71.20
2018-07-13T20:01:01.100Z,71.70
2018-07-13T20:04:04.264Z,71.80
2018-07-13T20:07:07.537Z,72.10
2018-07-13T20:10:10.724Z,72.60
2018-07-13T20:13:14.043Z,72.90
2018-07-13T20:16:17.440Z,73.50
2018-07-13T20:19:20.639Z,73.70
2018-07-13T20:22:23.804Z,73.70
2018-07-13T20:25:26.955Z,73.60
2018-07-13T20:28:30.096Z,74.10
2018-07-13T20:31:33.310Z,74.90
2018-07-13T20:34:36.443Z,75.20
2018-07-13T20:37:39.612Z,75.20
2018-07-13T20:40:42.853Z,74.90
2018-07-13T20:43:46.008Z,75.70
2018-07-13T20:46:49.214Z,75.50
2018-07-13T20:49:52.460Z,75.90
2018-07-13T20:52:55.689Z,75.90
2018-07-13T20:55:58.859Z,76.30
2018-07-13T20:59:02.032Z,76.70
2018-07-13T21:02:05.217Z,76.80
2018-07-13T21:05:08.466Z,77.20
2018-07-13T21:08:11.597Z,77.30
2018-07-13T21:11:14.746Z,78.20
2018-07-13T21:14:18.523Z,77.90
2018-07-13T21:17:21.832Z,79.30
2018-07-13T21:20:25.095Z,78.70
2018-07-13T21:26:37.019Z,79.30
2018-07-13T21:32:43.023Z,78.90
2018-07-13T21:35:46.240Z,79.00
2018-07-13T21:38:49.534Z,80.40
2018-07-13T21:41:52.775Z,80.10
2018-07-13T21:44:55.969Z,79.70
2018-07-13T21:47:59.291Z,80.30
2018-07-13T21:51:02.537Z,80.70
2018-07-13T21:54:05.703Z,81.60
2018-07-13T21:57:08.952Z,81.60
2018-07-13T22:00:12.105Z,82.00
2018-07-13T22:03:15.408Z,80.80
2018-07-13T22:06:18.639Z,80.70
2018-07-13T22:09:21.903Z,81.20
2018-07-13T22:12:25.171Z,82.20
2018-07-13T22:15:28.352Z,81.80
2018-07-13T22:18:31.727Z,82.20
2018-07-13T22:21:35.030Z,80.80
2018-07-13T22:24:38.191Z,81.50
2018-07-13T22:27:41.384Z,82.90
2018-07-13T22:30:44.609Z,82.60
2018-07-13T22:33:47.829Z,83.00
2018-07-13T22:36:51.020Z,82.40
2018-07-13T22:39:54.177Z,82.50
2018-07-13T22:42:57.403Z,83.10
2018-07-13T22:46:00.635Z,82.60
2018-07-13T22:49:03.842Z,83.20
2018-07-13T22:52:07.090Z,83.50
2018-07-13T22:55:10.332Z,84.20
2018-07-13T22:58:13.468Z,84.30
2018-07-13T23:01:16.649Z,85.40
2018-07-13T23:04:19.830Z,85.70
2018-07-13T23:07:23.293Z,85.60
2018-07-13T23:10:26.447Z,84.20
2018-07-13T23:13:29.669Z,85.40
2018-07-13T23:16:32.844Z,85.20
2018-07-13T23:19:36.007Z,86.50
2018-07-13T23:22:39.340Z,85.00
2018-07-13T23:25:42.504Z,86.30
2018-07-13T23:28:45.672Z,85.70
2018-07-13T23:31:48.928Z,86.70
2018-07-13T23:34:52.075Z,86.40
2018-07-13T23:37:55.227Z,86.10
2018-07-13T23:40:58.426Z,86.00
2018-07-13T23:44:01.612Z,86.30
2018-07-13T23:47:04.824Z,86.20
2018-07-13T23:50:08.027Z,86.10
2018-07-13T23:53:11.227Z,86.70
2018-07-13T23:56:14.409Z,87.40
2018-07-13T23:59:17.572Z,87.50
